Time,TemperatureF,DewpointF,PressureIn,WindDirection,WindDirectionDegrees,WindSpeedMPH,WindSpeedGustMPH,Humidity,HourlyPrecipIn,Conditions,Clouds,dailyrainin,SoftwareType,DateUTC
2013-08-15 00:12:00,56.0,56.0,30.13,West,275,0.0,0.0,100,0.00,,,0.00,,2013-08-15 05:12:00,
2013-08-15 00:22:00,56.0,56.0,30.13,West,275,0.0,0.0,100,0.00,,,0.00,,2013-08-15 05:22:00,
2013-08-15 00:52:00,56.0,56.0,30.11,West,275,0.0,0.0,100,0.00,,,0.00,,2013-08-15 05:52:00,
2013-08-15 01:11:00,55.0,55.0,30.11,West,275,0.0,0.0,100,0.00,,,0.00,,2013-08-15 06:11:00,
2013-08-15 01:21:00,55.0,55.0,30.11,West,275,0.0,0.0,100,0.00,,,0.00,,2013-08-15 06:21:00,
2013-08-15 01:42:00,55.0,55.0,30.12,West,275,0.0,0.0,100,0.00,,,0.00,,2013-08-15 06:42:00,
2013-08-15 01:52:00,55.0,55.0,30.11,West,275,0.0,0.0,100,0.00,,,0.00,,2013-08-15 06:52:00,
2013-08-15 02:11:00,55.0,55.0,30.11,West,275,0.0,0.0,100,0.00,,,0.00,,2013-08-15 07:11:00,
2013-08-15 02:21:00,54.0,54.0,30.10,West,275,0.0,0.0,100,0.00,,,0.00,,2013-08-15 07:21:00,
2013-08-15 02:41:00,54.0,54.0,30.10,West,275,0.0,0.0,100,0.00,,,0.00,,2013-08-15 07:41:00,
2013-08-15 02:52:00,54.0,54.0,30.10,West,275,0.0,0.0,100,0.00,,,0.00,,2013-08-15 07:52:00,
2013-08-15 03:11:00,54.0,54.0,30.09,West,275,0.0,0.0,100,0.00,,,0.00,,2013-08-15 08:11:00,
2013-08-15 03:21:00,54.0,54.0,30.09,West,275,0.0,0.0,100,0.00,,,0.00,,2013-08-15 08:21:00,
2013-08-15 03:52:00,54.0,54.0,30.10,West,275,0.0,0.0,100,0.00,,,0.00,,2013-08-15 08:52:00,
2013-08-15 04:11:00,54.0,54.0,30.11,West,275,0.0,0.0,100,0.00,,,0.00,,2013-08-15 09:11:00,
2013-08-15 04:21:00,54.0,54.0,30.10,West,275,0.0,0.0,100,0.00,,,0.00,,2013-08-15 09:21:00,
2013-08-15 04:42:00,54.0,54.0,30.10,West,275,0.0,0.0,100,0.00,,,0.00,,2013-08-15 09:42:00,
2013-08-15 04:53:00,54.0,54.0,30.10,West,275,0.0,0.0,100,0.00,,,0.00,,2013-08-15 09:53:00,
2013-08-15 05:12:00,53.0,53.0,30.09,West,275,0.0,0.0,100,0.00,,,0.00,,2013-08-15 10:12:00,
2013-08-15 05:22:00,53.0,53.0,30.09,West,275,0.0,0.0,100,0.00,,,0.00,,2013-08-15 10:22:00,
2013-08-15 05:42:00,53.0,53.0,30.10,West,275,0.0,0.0,100,0.00,,,0.00,,2013-08-15 10:42:00,
2013-08-15 05:52:00,53.0,53.0,30.09,West,275,0.0,0.0,100,0.00,,,0.00,,2013-08-15 10:52:00,
2013-08-15 06:11:00,53.0,53.0,30.10,West,275,0.0,0.0,100,0.00,,,0.00,,2013-08-15 11:11:00,
2013-08-15 06:22:00,53.0,53.0,30.10,West,275,0.0,0.0,100,0.00,,,0.00,,2013-08-15 11:22:00,
2013-08-15 06:52:00,53.0,53.0,30.11,West,275,0.0,0.0,100,0.00,,,0.00,,2013-08-15 11:52:00,
2013-08-15 07:11:00,53.0,53.0,30.11,West,275,0.0,0.0,100,0.00,,,0.00,,2013-08-15 12:11:00,
2013-08-15 07:21:00,54.0,54.0,30.11,West,275,0.0,0.0,100,0.01,,,0.01,,2013-08-15 12:21:00,
2013-08-15 07:42:00,55.0,55.0,30.12,West,275,0.0,0.0,100,0.01,,,0.01,,2013-08-15 12:42:00,
2013-08-15 07:52:00,56.0,56.0,30.13,West,275,0.0,0.0,100,0.01,,,0.01,,2013-08-15 12:52:00,
2013-08-15 08:11:00,58.0,58.0,30.13,West,275,0.0,0.0,100,0.01,,,0.01,,2013-08-15 13:11:00,
2013-08-15 08:21:00,60.0,60.0,30.13,West,275,0.0,0.0,100,0.00,,,0.01,,2013-08-15 13:21:00,
2013-08-15 08:52:00,62.0,61.0,30.13,West,278,0.0,0.0,96,0.00,,,0.01,,2013-08-15 13:52:00,
2013-08-15 09:12:00,65.0,60.0,30.13,North,360,0.0,0.0,83,0.00,,,0.01,,2013-08-15 14:12:00,
2013-08-15 09:22:00,67.0,59.0,30.12,NE,34,1.0,5.0,75,0.00,,,0.01,,2013-08-15 14:22:00,
2013-08-15 09:43:00,68.0,59.0,30.12,ENE,72,1.0,5.0,73,0.00,,,0.01,,2013-08-15 14:43:00,
2013-08-15 09:55:00,70.0,61.0,30.12,WNW,296,0.0,3.0,72,0.00,,,0.01,,2013-08-15 14:55:00,
2013-08-15 10:13:00,71.0,59.0,30.12,NE,49,1.0,6.0,67,0.00,,,0.01,,2013-08-15 15:13:00,
2013-08-15 10:23:00,71.0,59.0,30.12,West,277,1.0,9.0,67,0.00,,,0.01,,2013-08-15 15:23:00,
2013-08-15 10:43:00,72.0,60.0,30.13,SE,143,1.0,10.0,65,0.00,,,0.01,,2013-08-15 15:43:00,
2013-08-15 10:54:00,73.0,58.0,30.13,NE,35,3.0,8.0,59,0.00,,,0.01,,2013-08-15 15:54:00,
2013-08-15 11:13:00,74.0,60.0,30.12,West,274,2.0,6.0,61,0.00,,,0.01,,2013-08-15 16:13:00,
2013-08-15 11:26:00,73.0,59.0,30.11,East,88,1.0,7.0,61,0.00,,,0.01,,2013-08-15 16:26:00,
2013-08-15 11:44:00,74.0,59.0,30.11,West,272,1.0,7.0,59,0.00,,,0.01,,2013-08-15 16:44:00,
2013-08-15 11:55:00,75.0,59.0,30.11,ENE,71,4.0,7.0,57,0.00,,,0.01,,2013-08-15 16:55:00,
2013-08-15 12:18:00,74.0,58.0,30.11,North,354,3.0,7.0,58,0.00,,,0.01,,2013-08-15 17:18:00,
2013-08-15 12:30:00,75.0,-99.9,30.10,NE,54,1.0,7.0,56,0.00,,,0.01,,2013-08-15 17:30:00,
2013-08-15 13:00:00,-999.0,-99.9,30.09,NNE,16,1.0,6.0,-999,-99.99,,,-99.99,,2013-08-15 18:00:00,
2013-08-15 13:26:00,77.0,60.0,30.09,West,265,0.0,6.0,55,0.00,,,0.01,,2013-08-15 18:26:00,
2013-08-15 13:35:00,-999.0,-99.9,30.09,North,360,1.0,8.0,-999,0.00,,,0.01,,2013-08-15 18:35:00,
2013-08-15 13:49:00,77.0,61.0,30.08,NE,49,1.0,7.0,57,0.00,,,0.01,,2013-08-15 18:49:00,
2013-08-15 14:06:00,-999.0,-99.9,30.07,NE,44,1.0,6.0,-999,0.00,,,0.01,,2013-08-15 19:06:00,
2013-08-15 14:17:00,77.0,58.0,30.07,ENE,78,2.0,7.0,52,0.00,,,0.01,,2013-08-15 19:17:00,
2013-08-15 14:34:00,-999.0,-99.9,30.06,West,268,2.0,7.0,-999,-99.99,,,-99.99,,2013-08-15 19:34:00,
2013-08-15 14:49:00,77.0,62.0,30.06,North,357,1.0,8.0,59,0.00,,,0.01,,2013-08-15 19:49:00,
2013-08-15 15:11:00,78.0,62.0,30.06,West,270,1.0,6.0,57,0.00,,,0.01,,2013-08-15 20:11:00,
2013-08-15 16:01:00,78.0,60.0,30.04,West,275,1.0,9.0,54,0.00,,,0.01,,2013-08-15 21:01:00,
2013-08-15 16:17:00,78.0,61.0,30.04,South,169,1.0,6.0,55,0.00,,,0.01,,2013-08-15 21:17:00,
2013-08-15 16:38:00,78.0,62.0,30.03,NE,42,0.0,5.0,57,0.00,,,0.01,,2013-08-15 21:38:00,
2013-08-15 16:57:00,77.0,61.0,30.03,ESE,114,0.0,5.0,57,0.00,,,0.01,,2013-08-15 21:57:00,
2013-08-15 17:17:00,77.0,61.0,30.03,WNW,294,3.0,5.0,58,0.00,,,0.01,,2013-08-15 22:17:00,
2013-08-15 17:29:00,77.0,61.0,30.03,NW,305,1.0,7.0,57,0.00,,,0.01,,2013-08-15 22:29:00,
2013-08-15 17:58:00,76.0,62.0,30.03,North,10,1.0,7.0,61,0.00,,,0.01,,2013-08-15 22:58:00,
2013-08-15 18:16:00,76.0,62.0,30.03,WNW,287,0.0,5.0,61,0.00,,,0.01,,2013-08-15 23:16:00,
2013-08-15 18:34:00,-999.0,-99.9,30.03,SW,233,0.0,2.0,61,0.00,,,0.01,,2013-08-15 23:34:00,
2013-08-15 18:55:00,75.0,62.0,30.03,WSW,248,0.0,3.0,64,0.00,,,0.01,,2013-08-15 23:55:00,
2013-08-15 19:46:00,71.0,65.0,30.03,WSW,248,0.0,0.0,80,0.00,,,0.01,,2013-08-16 00:46:00,
2013-08-15 19:52:00,69.0,64.0,30.04,WSW,248,0.0,0.0,84,0.00,,,0.01,,2013-08-16 00:52:00,
2013-08-15 20:19:00,67.0,63.0,30.04,WSW,241,0.0,0.0,88,0.00,,,0.01,,2013-08-16 01:19:00,
2013-08-15 20:26:00,66.0,63.0,30.05,WSW,248,0.0,0.0,91,0.00,,,0.01,,2013-08-16 01:26:00,
2013-08-15 20:43:00,-999.0,-99.9,30.05,WSW,248,0.0,-999.0,-999,-99.99,,,-99.99,,2013-08-16 01:43:00,
2013-08-15 20:54:00,64.0,63.0,30.05,WSW,248,0.0,0.0,95,0.00,,,0.01,,2013-08-16 01:54:00,
2013-08-15 21:12:00,63.0,62.0,30.05,WSW,248,0.0,0.0,96,0.00,,,0.01,,2013-08-16 02:12:00,
2013-08-15 21:21:00,63.0,62.0,30.06,WSW,248,0.0,0.0,96,0.00,,,0.01,,2013-08-16 02:21:00,
2013-08-15 21:43:00,63.0,62.0,30.06,WSW,248,0.0,0.0,96,0.00,,,0.01,,2013-08-16 02:43:00,
2013-08-15 21:52:00,62.0,61.0,30.06,WSW,248,0.0,0.0,97,0.00,,,0.01,,2013-08-16 02:52:00,
2013-08-15 22:22:00,61.0,61.0,30.06,WSW,248,0.0,0.0,99,0.00,,,0.01,,2013-08-16 03:22:00,
2013-08-15 22:43:00,61.0,61.0,30.06,WSW,241,0.0,0.0,99,0.00,,,0.01,,2013-08-16 03:43:00,
2013-08-15 22:53:00,61.0,61.0,30.06,WSW,248,0.0,0.0,100,0.00,,,0.01,,2013-08-16 03:53:00,
2013-08-15 23:13:00,60.0,60.0,30.06,WSW,248,0.0,0.0,100,0.00,,,0.01,,2013-08-16 04:13:00,
2013-08-15 23:23:00,60.0,60.0,30.07,WSW,248,0.0,0.0,100,0.00,,,0.01,,2013-08-16 04:23:00,
2013-08-15 23:42:00,60.0,60.0,30.07,WSW,248,0.0,0.0,100,0.00,,,0.01,,2013-08-16 04:42:00,
2013-08-15 23:53:00,60.0,60.0,30.07,WSW,248,0.0,0.0,100,0.00,,,0.01,,2013-08-16 04:53:00,